No.2yushinmaru — JPPV — position and weather

sailwx.info

Track history (hours):
 
Tides and Currents Weather Stations Pressure Air Temp Water Temp Dewpoint Dewpoint Depression Visibility Wind Speed Wind Dir Waves Ship Positions

No.2yushinmaru

Last reported at 2017-Sep-25 07:21 UTC. Time now 2017-Nov-18 14:20 UTC.
Position N 34°53' E 139°47'.
Warning: this ship's position is 54 days out of date.

Length 70 m; draft 5.5 m.

Type: Fishing. MMSI: 432364000.

Date/timePositionNaut miles runAvg speedWind from/ knotsBaromVisibWave heightAir tempDewpointWater temp
2017-Sep-25 07:21N 34°53' E 139°47'615.8
2017-Sep-25 07:00N 34°57' E 139°42'714.9
2017-Sep-25 06:30N 35°04' E 139°42'816.2
2017-Sep-25 06:00N 35°12' E 139°46'510.9
2017-Sep-25 05:30N 35°17' E 139°45'3 6.2
2017-Sep-25 04:59N 35°17' E 139°41'0 0.0
2017-Sep-25 04:29N 35°17' E 139°41'0 0.0
2017-Sep-25 03:59N 35°17' E 139°41'0 0.0
2017-Sep-25 03:29N 35°17' E 139°41'0 0.0
2017-Sep-25 02:59N 35°17' E 139°41'0 0.0
2017-Sep-25 02:29N 35°17' E 139°41'0 0.0
2017-Sep-25 01:59N 35°17' E 139°41'0 0.0
2017-Sep-25 01:29N 35°17' E 139°41'0 0.0
2017-Sep-25 00:59N 35°17' E 139°41'0 0.0
2017-Sep-25 00:29N 35°17' E 139°41'0 0.0
2017-Sep-25 00:00N 35°17' E 139°41'2 3.5
2017-Sep-24 23:30N 35°18' E 139°43'5 8.8
2017-Sep-24 22:59N 35°15' E 139°47'510.3
2017-Sep-24 22:30N 35°10' E 139°46'510.2
2017-Sep-24 22:00N 35°05' E 139°45'16 3.2
2017-Sep-24 16:56N 34°49' E 139°44'  
Track history (hours):
 
Tides and Currents Weather Stations Pressure Air Temp Water Temp Dewpoint Dewpoint Depression Visibility Wind Speed Wind Dir Waves Ship Positions

No.2yushinmaru

Last reported at 2017-Sep-25 07:21 UTC. Time now 2017-Nov-18 14:20 UTC.
Position N 34°53' E 139°47'.
Warning: this ship's position is 54 days out of date.

Length 70 m; draft 5.5 m.

Type: Fishing. MMSI: 432364000.

Date/timePositionNaut miles runAvg speedWind from/ knotsBaromVisibWave heightAir tempDewpointWater temp
2017-Sep-25 07:21N 34°53' E 139°47'615.8
2017-Sep-25 07:00N 34°57' E 139°42'714.9
2017-Sep-25 06:30N 35°04' E 139°42'816.2
2017-Sep-25 06:00N 35°12' E 139°46'510.9
2017-Sep-25 05:30N 35°17' E 139°45'3 6.2
2017-Sep-25 04:59N 35°17' E 139°41'0 0.0
2017-Sep-25 04:29N 35°17' E 139°41'0 0.0
2017-Sep-25 03:59N 35°17' E 139°41'0 0.0
2017-Sep-25 03:29N 35°17' E 139°41'0 0.0
2017-Sep-25 02:59N 35°17' E 139°41'0 0.0
2017-Sep-25 02:29N 35°17' E 139°41'0 0.0
2017-Sep-25 01:59N 35°17' E 139°41'0 0.0
2017-Sep-25 01:29N 35°17' E 139°41'0 0.0
2017-Sep-25 00:59N 35°17' E 139°41'0 0.0
2017-Sep-25 00:29N 35°17' E 139°41'0 0.0
2017-Sep-25 00:00N 35°17' E 139°41'2 3.5
2017-Sep-24 23:30N 35°18' E 139°43'5 8.8
2017-Sep-24 22:59N 35°15' E 139°47'510.3
2017-Sep-24 22:30N 35°10' E 139°46'510.2
2017-Sep-24 22:00N 35°05' E 139°45'16 3.2
2017-Sep-24 16:56N 34°49' E 139°44'  

Dump ship's entire track history